In Amenas, Algeria
Current Conditions -  °F | °C
As of 1:00 PM on Sunday 25 Jan 2015 (Local Time) from DAUZ Reporting Station
Clear Clear  
Wind Chill: 11°   Ceiling: Unl
Heat Index: 11°   Visibility: 6mi
Dew Point: -6°   Wind: 6mph
Humidity: 30%   Direction: 250°WSW
Pressure: 30.09"   Gusts: NA
Location:  28.05°N, 9.56°E
Report Text: DAUZ 251200Z 25005KT CAVOK 11/M06 Q1019
Loading
Personal Weather Stations






























Interactive Weather Map New forecast layout! Learn more

10-Day Weather Forecast

Advertisements
Track Severe Weather on mobile